»·PEaware :: DEGCW S31-W04

DEGCW :: S31-W04

FLIGHT INFORMATION

Flight Status: Arrived
Operator: Unknown
More flights by this operator :: More flights under this callsign
Pilot: Klaus A. (15485)
Aircraft: Diamond DA-40
(DA40)
More flights by this aircraft type
Origin: S31 Lopez Island
United States
Destination: W04 Ocean Shores Mun
United States
More flights between these airports :: More routes between these airports
Route: +
File this flight plan on PilotEdge
Remarks:
Altitude:
(Current/Filed)
9,500ft
Speed:
(Current/Filed)
130kts
Departed: 17-May-20 08:38 AM
Arrived: 17-May-20 09:34 AM
Distance/Time
Traveled:
101nm/0:56
Distance/Time
To Go:
Arrived

Flight Plot

Page will automatically refresh every two minutes.

Flight plan parsing failed; only flown route is shown


Map Options




Map Legend


Flown Route
Filed Route
Departure Airport
Arrival Airport
Navaid (VOR, NDB)
Fix

Horizontal Profiles

Position Reports

Time Latitude Longitude Heading Altitude Ground
Speed
17-May-20 08:00 48.487302 -122.936605 180 203ft 0kts
17-May-20 08:01 48.487302 -122.936605 180 203ft 0kts
17-May-20 08:02 48.487302 -122.936605 180 203ft 0kts
17-May-20 08:03 48.487302 -122.936605 180 203ft 0kts
17-May-20 08:04 48.487302 -122.936605 180 203ft 0kts
17-May-20 08:05 48.487302 -122.936605 180 203ft 0kts
17-May-20 08:06 48.487302 -122.936605 180 203ft 0kts
17-May-20 08:07 48.487302 -122.936605 180 203ft 0kts
17-May-20 08:08 48.487302 -122.936605 180 203ft 0kts
17-May-20 08:09 48.487302 -122.936605 180 203ft 0kts
17-May-20 08:10 48.487302 -122.936605 180 203ft 0kts
17-May-20 08:11 48.487302 -122.936605 180 203ft 0kts
17-May-20 08:12 48.487302 -122.936605 180 203ft 0kts
17-May-20 08:13 48.487302 -122.936605 180 203ft 0kts
17-May-20 08:14 48.487302 -122.936605 180 203ft 0kts
17-May-20 08:15 48.487302 -122.936605 180 203ft 0kts
17-May-20 08:16 48.487302 -122.936605 180 203ft 0kts
17-May-20 08:17 48.487302 -122.936605 180 203ft 0kts
17-May-20 08:18 48.487303 -122.936605 180 203ft 0kts
17-May-20 08:19 48.487303 -122.936605 180 203ft 0kts
17-May-20 08:20 48.487303 -122.936605 180 203ft 0kts
17-May-20 08:21 48.487303 -122.936605 180 203ft 0kts
17-May-20 08:22 48.487302 -122.936605 180 203ft 0kts
17-May-20 08:23 48.487303 -122.936605 180 203ft 0kts
17-May-20 08:24 48.487303 -122.936605 180 203ft 0kts
17-May-20 08:25 48.487303 -122.936605 180 203ft 0kts
17-May-20 08:26 48.487303 -122.936605 180 203ft 0kts
17-May-20 08:27 48.487303 -122.936605 180 203ft 0kts
17-May-20 08:28 48.487302 -122.936605 180 203ft 0kts
17-May-20 08:29 48.487303 -122.936605 180 203ft 0kts
17-May-20 08:30 48.487302 -122.936605 180 203ft 0kts
17-May-20 08:31 48.487267 -122.936604 182 203ft 1kts
17-May-20 08:32 48.487681 -122.937110 349 203ft 0kts
17-May-20 08:33 48.487681 -122.937111 349 203ft 0kts
17-May-20 08:34 48.487681 -122.937111 349 203ft 0kts
17-May-20 08:35 48.487681 -122.937110 349 203ft 0kts
17-May-20 08:36 48.487681 -122.937110 349 203ft 0kts
17-May-20 08:37 48.483656 -122.937759 182 268ft 68kts
17-May-20 08:38 48.465485 -122.945827 218 1327ft 73kts
17-May-20 08:39 48.447903 -122.960806 193 2330ft 74kts
17-May-20 08:40 48.431839 -122.979310 212 3144ft 76kts
17-May-20 08:41 48.414644 -122.997635 203 3915ft 77kts
17-May-20 08:42 48.395874 -123.013044 210 4637ft 77kts
17-May-20 08:43 48.379219 -123.025730 205 5229ft 77kts
17-May-20 08:44 48.360189 -123.040895 208 5880ft 77kts
17-May-20 08:45 48.341495 -123.056512 208 6492ft 76kts
17-May-20 08:46 48.322826 -123.072087 209 7071ft 76kts
17-May-20 08:47 48.304369 -123.087467 209 7606ft 76kts
17-May-20 08:48 48.282695 -123.105614 208 8099ft 98kts
17-May-20 08:49 48.261878 -123.122845 209 8665ft 99kts
17-May-20 08:50 48.237776 -123.142855 209 9300ft 99kts
17-May-20 08:51 48.210888 -123.165050 208 9494ft 127kts
17-May-20 08:52 48.178409 -123.191885 208 9488ft 135kts
17-May-20 08:53 48.144733 -123.219699 208 9488ft 139kts
17-May-20 08:54 48.116398 -123.243079 208 9487ft 139kts
17-May-20 08:55 48.082466 -123.271042 208 9487ft 139kts
17-May-20 08:56 48.049345 -123.298297 208 9487ft 139kts
17-May-20 08:57 48.015319 -123.326116 208 9487ft 139kts
17-May-20 08:58 47.981307 -123.353966 208 9487ft 139kts
17-May-20 08:59 47.947300 -123.381823 208 9487ft 139kts
17-May-20 09:01 47.913335 -123.409603 208 9487ft 139kts
17-May-20 09:02 47.879225 -123.437464 208 9487ft 139kts
17-May-20 09:03 47.845197 -123.465206 208 9487ft 139kts
17-May-20 09:04 47.811135 -123.492938 208 9487ft 139kts
17-May-20 09:05 47.777108 -123.520602 208 9487ft 139kts
17-May-20 09:06 47.743067 -123.548230 208 9487ft 139kts
17-May-20 09:07 47.708951 -123.575886 208 9487ft 139kts
17-May-20 09:08 47.674840 -123.603492 208 9487ft 139kts
17-May-20 09:09 47.640849 -123.630965 208 9487ft 139kts
17-May-20 09:10 47.606672 -123.658542 208 9487ft 139kts
17-May-20 09:11 47.572624 -123.685970 208 9487ft 139kts
17-May-20 09:12 47.538599 -123.713343 208 9487ft 139kts
17-May-20 09:13 47.504483 -123.740748 208 9487ft 139kts
17-May-20 09:14 47.470295 -123.768172 208 9487ft 139kts
17-May-20 09:15 47.435661 -123.795948 208 8972ft 141kts
17-May-20 09:15 47.407133 -123.818783 208 8389ft 140kts
17-May-20 09:17 47.367055 -123.850795 208 7571ft 140kts
17-May-20 09:18 47.333139 -123.877835 208 6880ft 139kts
17-May-20 09:18 47.305468 -123.899877 208 6306ft 138kts
17-May-20 09:19 47.271638 -123.926773 208 5606ft 138kts
17-May-20 09:21 47.232051 -123.958198 208 4788ft 138kts
17-May-20 09:21 47.203971 -123.980468 208 4203ft 136kts
17-May-20 09:22 47.170916 -124.006733 208 3501ft 134kts
17-May-20 09:23 47.138084 -124.032047 208 2847ft 133kts
17-May-20 09:24 47.105485 -124.057098 205 2236ft 132kts
17-May-20 09:25 47.072875 -124.078678 212 1943ft 123kts
17-May-20 09:26 47.043136 -124.101687 205 1931ft 120kts
17-May-20 09:27 47.014543 -124.127254 210 1907ft 120kts
17-May-20 09:28 46.989743 -124.122341 85 1951ft 115kts
17-May-20 09:29 47.016862 -124.112926 350 1796ft 109kts
17-May-20 09:30 47.032200 -124.129803 251 1324ft 77kts
17-May-20 09:31 47.018662 -124.146264 174 590ft 66kts
17-May-20 09:32 47.001527 -124.142969 171 16ft 44kts
17-May-20 09:33 46.999282 -124.143231 256 16ft 5kts
17-May-20 09:34 46.999383 -124.143906 65 16ft 0kts
17-May-20 09:35 46.999383 -124.143906 65 16ft 0kts
17-May-20 09:36 46.999383 -124.143906 65 16ft 0kts
17-May-20 09:37 46.999383 -124.143906 65 16ft 0kts
17-May-20 09:38 46.999383 -124.143906 65 16ft 0kts
17-May-20 09:39 46.999383 -124.143906 65 16ft 0kts
17-May-20 09:40 46.999383 -124.143906 65 16ft 0kts
17-May-20 09:41 46.999383 -124.143906 65 16ft 0kts
17-May-20 09:42 46.999383 -124.143906 65 16ft 0kts
17-May-20 09:43 46.999383 -124.143906 65 16ft 0kts

Navigation Log

Ident Type
Flight plan parsing failed, navigation log unavailable